Bookmark and Share
Track history (hours):
 

Ocean Highway

Last reported at 2014-Apr-17 06:32 UTC. Time now 2014-Apr-20 08:47 UTC.
Position S 38°19' E 140°49'.

Length 179.1 m; beam 32.2 m.

Type: Cargo ship. MMSI: 353951000.

NotesDate/timePositionNaut miles runAvg speedWind from/ knotsBaromVisibWave heightAir tempDewpointWater temp
2014-Apr-17 06:32S 38°19' E 140°49'1515.2
2014-Apr-17 05:32S 38°26' E 141°07'1515.4
2014-Apr-17 04:33S 38°32' E 141°24'1515.4
2014-Apr-17 03:33S 38°38' E 141°42'1615.6
2014-Apr-17 02:33S 38°41' E 142°02'1615.6
2014-Apr-17 01:33S 38°46' E 142°21'1615.7
2014-Apr-17 00:33S 38°49' E 142°41'1515.7
2014-Apr-16 23:33S 38°54' E 143°00'1715.5
2014-Apr-16 22:29S 38°57' E 143°21'7715.2
2014-Apr-16 17:26S 38°18' E 144°46'1010.2
2014-Apr-16 16:28S 38°11' E 144°54'1516.0
2014-Apr-16 15:33S 37°57' E 144°56'6 5.9
2014-Apr-16 14:31S 37°51' E 144°54'0 0.0
2014-Apr-16 13:25S 37°51' E 144°54'0 0.0
2014-Apr-16 12:31S 37°51' E 144°54'0 0.0
2014-Apr-16 11:31S 37°51' E 144°54'0 0.0
2014-Apr-16 10:31S 37°51' E 144°54'0 0.0
2014-Apr-16 09:31S 37°51' E 144°54'0 0.0
2014-Apr-16 08:31S 37°51' E 144°54'0 0.0
2014-Apr-16 07:31S 37°51' E 144°54'0 0.0
2014-Apr-16 06:31S 37°51' E 144°54'0 0.0
2014-Apr-16 05:31S 37°51' E 144°54'0 0.0
2014-Apr-16 04:31S 37°51' E 144°54'0 0.0
2014-Apr-16 03:31S 37°51' E 144°54'0 0.0
2014-Apr-16 02:31S 37°51' E 144°54'1 1.5
2014-Apr-16 01:33S 37°52' E 144°55'1413.5
2014-Apr-16 00:33S 38°06' E 144°55'73 8.0
2014-Apr-15 15:26S 39°03' E 145°52'1416.2
2014-Apr-15 14:32S 39°11' E 146°08'16 8.0
2014-Apr-15 12:32S 39°09' E 146°28'3316.6
2014-Apr-15 10:33S 38°59' E 147°08'14315.9
2014-Apr-15 01:33S 37°49' E 149°47'1615.8
2014-Apr-15 00:33S 37°40' E 150°03'1615.8
2014-Apr-14 23:33S 37°30' E 150°20'272 9.0
2014-Apr-13 17:12S 33°11' E 152°03'1015.4
2014-Apr-13 16:33S 33°03' E 152°09'1515.1
2014-Apr-13 15:33S 32°51' E 152°19'1615.9
2014-Apr-13 14:33S 32°37' E 152°30'1616.1
2014-Apr-13 13:33S 32°23' E 152°39'1515.4
2014-Apr-13 12:33S 32°09' E 152°45'23915.0
2014-Apr-12 20:33S 28°15' E 153°43'1616.4
2014-Apr-12 19:33S 27°58' E 153°43'1716.8
2014-Apr-12 18:33S 27°41' E 153°43'1716.9
2014-Apr-12 17:33S 27°24' E 153°42'1615.8
2014-Apr-12 16:33S 27°09' E 153°38'1515.2
2014-Apr-12 15:33S 26°55' E 153°32'1716.6
2014-Apr-12 14:33S 26°46' E 153°17'7 7.1
2014-Apr-12 13:33S 26°49' E 153°10'1514.9
2014-Apr-12 12:33S 27°03' E 153°16'1312.9
2014-Apr-12 11:33S 27°16' E 153°17'10 9.9
2014-Apr-12 10:33S 27°23' E 153°10'0 0.0
2014-Apr-12 09:33S 27°23' E 153°10'0 0.0
2014-Apr-12 08:33S 27°23' E 153°10'0 0.0
2014-Apr-12 07:33S 27°23' E 153°10'0 0.0
2014-Apr-12 06:33S 27°23' E 153°10'0 0.0
2014-Apr-12 05:33S 27°23' E 153°10'0 0.0
2014-Apr-12 04:33S 27°23' E 153°10'0 0.0
2014-Apr-12 03:33S 27°23' E 153°10'0 0.0
2014-Apr-12 02:33S 27°23' E 153°10'0 0.0
2014-Apr-12 01:33S 27°23' E 153°10'0 0.0
2014-Apr-12 00:33S 27°23' E 153°10'0 0.0
2014-Apr-11 23:33S 27°23' E 153°10'0 0.0
2014-Apr-11 22:33S 27°23' E 153°10'0 0.0
2014-Apr-11 21:33S 27°23' E 153°10'0 0.0
2014-Apr-11 20:33S 27°23' E 153°10'0 0.0
2014-Apr-11 19:33S 27°23' E 153°10'4 4.1
2014-Apr-11 18:33S 27°19' E 153°12'1010.0
2014-Apr-11 17:33S 27°12' E 153°20'1414.0
2014-Apr-11 16:34S 26°60' E 153°14'1313.4
2014-Apr-11 15:34S 26°46' E 153°11'1110.8
2014-Apr-11 14:34S 26°37' E 153°17'1414.3
2014-Apr-11 13:33S 26°29' E 153°30'11 8.5
2014-Apr-11 12:14S 26°22' E 153°41'2 2.1
2014-Apr-11 11:19S 26°21' E 153°39'2 1.9
2014-Apr-11 10:29S 26°21' E 153°37'2 1.7
2014-Apr-11 09:33S 26°20' E 153°36'1 1.4
2014-Apr-11 08:33S 26°19' E 153°35'1 1.3
2014-Apr-11 07:33S 26°17' E 153°35'1 1.3
2014-Apr-11 06:33S 26°16' E 153°35'1 1.1
2014-Apr-11 05:33S 26°15' E 153°36'7 0.9
2014-Apr-10 21:19S 26°10' E 153°30'1 1.3
2014-Apr-10 20:33S 26°09' E 153°31'4 1.5
2014-Apr-10 18:13S 26°07' E 153°35'1 1.0
2014-Apr-10 17:31S 26°07' E 153°35'1 1.0
2014-Apr-10 16:03S 26°06' E 153°37'0 0.6
2014-Apr-10 15:24S 26°06' E 153°37'  

Dump ship's entire track history

sailing weather and tide predictions

Ocean Highway — H3IE — position and weather